createdAt,value
2019-01-26T00:01:58.005Z,32.33
2019-01-26T00:04:38.385Z,31.97
2019-01-26T00:07:18.866Z,33.23
2019-01-26T00:09:59.475Z,31.67
2019-01-26T00:12:40.429Z,31.07
2019-01-26T00:15:21.389Z,31.87
2019-01-26T00:18:02.162Z,31.03
2019-01-26T00:20:43.328Z,31.43
2019-01-26T00:23:24.513Z,30.73
2019-01-26T00:26:05.585Z,30.63
2019-01-26T00:28:46.849Z,29.43
2019-01-26T00:31:27.445Z,29.30
2019-01-26T00:34:08.056Z,30.03
2019-01-26T00:36:48.636Z,30.70
2019-01-26T00:39:29.514Z,33.53
2019-01-26T00:41:57.941Z,30.67
2019-01-26T00:44:45.719Z,29.70
2019-01-26T00:47:33.481Z,28.93
2019-01-26T00:50:21.269Z,29.00
2019-01-26T00:53:09.007Z,28.60
2019-01-26T00:55:56.808Z,29.03
2019-01-26T00:58:44.568Z,29.70
2019-01-26T01:01:32.377Z,28.10
2019-01-26T01:04:20.401Z,28.13
2019-01-26T01:07:08.248Z,28.57
2019-01-26T01:09:56.001Z,25.47
2019-01-26T01:12:43.789Z,25.43
2019-01-26T01:15:31.725Z,25.53
2019-01-26T01:18:19.502Z,26.63
2019-01-26T01:21:07.341Z,26.33
2019-01-26T01:23:55.176Z,27.63
2019-01-26T01:26:42.951Z,27.73
2019-01-26T01:29:30.696Z,26.53
2019-01-26T01:31:59.307Z,28.30
2019-01-26T01:34:40.115Z,27.50
2019-01-26T01:37:20.886Z,26.00
2019-01-26T01:40:01.656Z,26.63
2019-01-26T01:42:45.458Z,27.50
2019-01-26T01:45:25.833Z,26.60
2019-01-26T01:48:06.520Z,27.27
2019-01-26T01:50:47.094Z,27.90
2019-01-26T01:53:28.240Z,28.07
2019-01-26T01:56:08.588Z,27.37
2019-01-26T01:58:49.266Z,25.70
2019-01-26T02:01:29.896Z,27.97
2019-01-26T02:04:10.707Z,26.97
2019-01-26T02:06:51.264Z,28.17
2019-01-26T02:09:31.997Z,25.60
2019-01-26T02:12:12.836Z,25.97
2019-01-26T02:14:53.684Z,25.63
2019-01-26T02:17:34.784Z,27.40
2019-01-26T02:20:15.248Z,26.50
2019-01-26T02:22:56.440Z,26.77
2019-01-26T02:25:37.041Z,26.20
2019-01-26T02:28:17.897Z,26.67
2019-01-26T02:30:58.751Z,26.37
2019-01-26T02:33:40.641Z,26.33
2019-01-26T02:36:21.087Z,24.63
2019-01-26T02:39:02.054Z,27.93
2019-01-26T02:41:42.772Z,27.00
2019-01-26T02:44:23.464Z,28.20
2019-01-26T02:47:04.226Z,27.33
2019-01-26T02:49:45.019Z,28.60
2019-01-26T02:52:25.948Z,28.10
2019-01-26T02:55:06.708Z,26.50
2019-01-26T02:57:47.785Z,27.47
2019-01-26T03:00:28.477Z,27.07
2019-01-26T03:03:09.132Z,27.17
2019-01-26T03:05:50.297Z,27.27
2019-01-26T03:08:30.952Z,26.87
2019-01-26T03:11:11.956Z,26.50
2019-01-26T03:13:53.116Z,26.03
2019-01-26T03:16:33.547Z,26.40
2019-01-26T03:19:14.202Z,26.07
2019-01-26T03:21:54.744Z,28.27
2019-01-26T03:24:35.391Z,27.97
2019-01-26T03:27:16.035Z,27.60
2019-01-26T03:29:56.804Z,26.37
2019-01-26T03:32:37.976Z,25.70
2019-01-26T03:35:18.410Z,26.20
2019-01-26T03:37:59.563Z,25.60
2019-01-26T03:40:40.745Z,26.07
2019-01-26T03:43:21.406Z,24.80
2019-01-26T03:46:02.391Z,25.47
2019-01-26T03:48:42.847Z,23.40
2019-01-26T03:51:23.289Z,25.10
2019-01-26T03:54:04.085Z,24.07
2019-01-26T03:56:44.698Z,23.93
2019-01-26T03:59:25.214Z,22.97
2019-01-26T04:02:06.249Z,22.70
2019-01-26T04:04:47.104Z,22.47
2019-01-26T04:07:27.883Z,23.57
2019-01-26T04:10:08.792Z,24.07
2019-01-26T04:12:49.156Z,23.30
2019-01-26T04:15:30.024Z,23.03
2019-01-26T04:18:10.536Z,22.53
2019-01-26T04:20:51.019Z,21.57
2019-01-26T04:23:31.892Z,20.57
2019-01-26T04:26:12.326Z,20.37
2019-01-26T04:28:53.048Z,21.80
2019-01-26T04:31:33.940Z,20.63
2019-01-26T04:34:15.188Z,19.77
2019-01-26T04:36:55.852Z,18.47
2019-01-26T04:39:36.437Z,19.63
2019-01-26T04:42:16.940Z,18.63
2019-01-26T04:44:57.279Z,17.57
2019-01-26T04:47:38.219Z,17.90
2019-01-26T04:50:18.568Z,17.23
2019-01-26T04:52:59.356Z,17.60
2019-01-26T04:55:40.292Z,17.57
2019-01-26T04:58:21.441Z,18.87
2019-01-26T05:01:02.455Z,18.07
2019-01-26T05:03:42.880Z,16.10
2019-01-26T05:06:23.862Z,15.20
2019-01-26T05:09:04.973Z,16.87
2019-01-26T05:14:28.028Z,15.93
2019-01-26T05:17:08.685Z,15.37
2019-01-26T05:19:49.916Z,16.10
2019-01-26T05:22:31.059Z,17.63
2019-01-26T05:25:12.157Z,16.53
2019-01-26T05:27:53.196Z,15.30
2019-01-26T05:30:34.181Z,16.53
2019-01-26T05:33:14.848Z,15.83
2019-01-26T05:35:55.186Z,16.03
2019-01-26T05:38:36.200Z,15.53
2019-01-26T05:41:16.900Z,15.57
2019-01-26T05:43:57.837Z,15.43
2019-01-26T05:46:38.202Z,15.77
2019-01-26T05:49:19.003Z,16.63
2019-01-26T05:51:59.913Z,15.87
2019-01-26T05:54:40.570Z,16.67
2019-01-26T05:57:21.095Z,16.17
2019-01-26T06:00:02.028Z,15.30
2019-01-26T06:02:42.829Z,13.80
2019-01-26T06:05:23.448Z,13.97
2019-01-26T06:08:04.357Z,14.60
2019-01-26T06:10:45.758Z,13.60
2019-01-26T06:16:09.158Z,14.10
2019-01-26T06:18:49.773Z,14.13
2019-01-26T06:21:30.624Z,13.40
2019-01-26T06:23:59.053Z,14.70
2019-01-26T06:26:46.804Z,13.73
2019-01-26T06:29:34.596Z,13.63
2019-01-26T06:32:22.343Z,13.70
2019-01-26T06:35:10.385Z,13.47
2019-01-26T06:37:58.428Z,13.53
2019-01-26T06:40:46.224Z,14.03
2019-01-26T06:43:33.992Z,14.10
2019-01-26T06:46:24.732Z,12.83
2019-01-26T06:49:12.501Z,14.43
2019-01-26T06:52:00.288Z,13.83
2019-01-26T06:54:48.064Z,14.00
2019-01-26T06:57:35.850Z,13.80
2019-01-26T07:00:44.572Z,14.03
2019-01-26T07:03:32.352Z,13.80
2019-01-26T07:09:28.950Z,13.80
2019-01-26T07:12:16.977Z,13.17
2019-01-26T07:15:25.470Z,13.03
2019-01-26T07:18:09.659Z,12.70
2019-01-26T07:20:49.172Z,12.23
2019-01-26T07:23:30.226Z,12.80
2019-01-26T07:25:58.940Z,12.20
2019-01-26T07:28:46.749Z,13.47
2019-01-26T07:31:34.684Z,15.60
2019-01-26T07:34:22.427Z,14.30
2019-01-26T07:37:10.264Z,12.93
2019-01-26T07:39:58.072Z,11.83
2019-01-26T07:42:46.197Z,12.47
2019-01-26T07:45:34.216Z,12.10
2019-01-26T07:48:22.039Z,12.47
2019-01-26T07:51:09.840Z,12.07
2019-01-26T07:53:57.614Z,11.77
2019-01-26T07:56:45.352Z,12.93
2019-01-26T07:59:33.120Z,13.00
2019-01-26T08:02:23.065Z,12.50
2019-01-26T08:05:11.578Z,12.33
2019-01-26T08:07:59.412Z,13.27
2019-01-26T08:10:47.485Z,12.77
2019-01-26T08:13:35.552Z,12.57
2019-01-26T08:16:23.581Z,12.80
2019-01-26T08:19:04.204Z,11.43
2019-01-26T08:21:44.990Z,12.23
2019-01-26T08:24:25.672Z,12.00
2019-01-26T08:27:06.249Z,14.27
2019-01-26T08:29:46.880Z,11.33
2019-01-26T08:32:27.904Z,11.73
2019-01-26T08:35:08.914Z,12.23
2019-01-26T08:37:49.426Z,11.40
2019-01-26T08:40:30.486Z,11.63
2019-01-26T08:43:11.042Z,11.83
2019-01-26T08:45:51.682Z,12.03
2019-01-26T08:48:32.591Z,11.47
2019-01-26T08:51:13.664Z,10.60
2019-01-26T08:53:54.388Z,11.37
2019-01-26T08:56:35.185Z,10.23
2019-01-26T08:59:15.782Z,9.53
2019-01-26T09:01:59.153Z,9.00
2019-01-26T09:04:39.990Z,9.63
2019-01-26T09:07:21.096Z,9.47
2019-01-26T09:10:01.999Z,9.60
2019-01-26T09:12:45.220Z,10.60
2019-01-26T09:15:26.082Z,10.67
2019-01-26T09:18:06.894Z,10.27
2019-01-26T09:20:47.936Z,10.03
2019-01-26T09:23:29.042Z,10.13
2019-01-26T09:26:09.731Z,11.13
2019-01-26T09:28:50.535Z,9.73
2019-01-26T09:31:31.700Z,10.93
2019-01-26T09:34:12.200Z,10.77
2019-01-26T09:36:52.755Z,10.93
2019-01-26T09:39:33.737Z,10.07
2019-01-26T09:42:14.736Z,11.40
2019-01-26T09:44:55.704Z,12.07
2019-01-26T09:47:36.574Z,11.07
2019-01-26T09:50:17.207Z,11.27
2019-01-26T09:52:58.162Z,10.97
2019-01-26T09:55:38.859Z,10.73
2019-01-26T09:58:20.039Z,11.43
2019-01-26T10:01:00.386Z,10.50
2019-01-26T10:03:40.727Z,10.90
2019-01-26T10:06:21.700Z,10.20
2019-01-26T10:09:03.179Z,10.73
2019-01-26T10:11:44.183Z,10.27
2019-01-26T10:14:25.258Z,11.57
2019-01-26T10:17:06.037Z,10.40
2019-01-26T10:19:46.946Z,11.87
2019-01-26T10:22:28.208Z,12.30
2019-01-26T10:25:08.674Z,11.47
2019-01-26T10:27:37.100Z,11.83
2019-01-26T10:30:57.495Z,12.33
2019-01-26T10:33:35.106Z,10.93
2019-01-26T10:39:31.419Z,11.70
2019-01-26T10:48:26.383Z,11.03
2019-01-26T10:51:14.193Z,12.60
2019-01-26T10:54:02.192Z,11.97
2019-01-26T10:56:51.686Z,11.57
2019-01-26T11:00:00.306Z,11.53
2019-01-26T11:02:48.140Z,12.17
2019-01-26T11:05:39.294Z,13.20
2019-01-26T11:08:27.116Z,12.00
2019-01-26T11:11:48.877Z,12.67
2019-01-26T11:14:24.571Z,12.43
2019-01-26T11:17:12.475Z,11.90
2019-01-26T11:20:00.545Z,12.60
2019-01-26T11:25:36.021Z,11.87
2019-01-26T11:28:16.890Z,13.67
2019-01-26T11:30:57.652Z,12.30
2019-01-26T11:33:42.813Z,11.67
2019-01-26T11:36:23.600Z,11.13
2019-01-26T11:39:05.304Z,11.67
2019-01-26T11:41:46.091Z,10.13
2019-01-26T11:44:26.813Z,9.83
2019-01-26T11:47:07.753Z,10.53
2019-01-26T11:49:50.334Z,9.67
2019-01-26T11:52:31.320Z,9.57
2019-01-26T11:55:13.714Z,9.87
2019-01-26T11:57:54.878Z,8.43
2019-01-26T12:00:59.386Z,9.27
2019-01-26T12:03:56.708Z,8.07
2019-01-26T12:06:44.345Z,8.50
2019-01-26T12:09:32.087Z,8.83
2019-01-26T12:12:19.855Z,8.80
2019-01-26T12:15:28.327Z,9.03
2019-01-26T12:18:16.120Z,8.97
2019-01-26T12:20:56.924Z,10.33
2019-01-26T12:23:37.854Z,9.43
2019-01-26T12:26:18.588Z,9.60
2019-01-26T12:28:59.336Z,8.67
2019-01-26T12:31:40.245Z,9.70
2019-01-26T12:34:21.070Z,9.20
2019-01-26T12:37:02.007Z,9.47
2019-01-26T12:39:43.118Z,9.60
2019-01-26T12:45:36.364Z,8.40
2019-01-26T12:48:17.248Z,8.37
2019-01-26T12:50:58.571Z,9.03
2019-01-26T12:53:39.265Z,8.73
2019-01-26T12:56:20.196Z,8.63
2019-01-26T12:59:01.182Z,8.93
2019-01-26T13:01:42.032Z,8.73
2019-01-26T13:04:22.830Z,9.00
2019-01-26T13:07:03.749Z,8.60
2019-01-26T13:09:45.604Z,7.30
2019-01-26T13:12:26.573Z,8.10
2019-01-26T13:15:07.617Z,7.83
2019-01-26T13:17:48.290Z,7.13
2019-01-26T13:20:29.006Z,13.63
2019-01-26T13:23:09.823Z,6.00
2019-01-26T13:25:50.620Z,6.73
2019-01-26T13:28:31.696Z,6.73
2019-01-26T13:31:13.976Z,7.00
2019-01-26T13:33:54.382Z,6.50
2019-01-26T13:36:35.226Z,6.60
2019-01-26T13:39:15.832Z,7.13
2019-01-26T13:41:58.072Z,5.63
2019-01-26T13:44:41.867Z,6.23
2019-01-26T13:47:22.592Z,5.93
2019-01-26T13:50:03.348Z,6.50
2019-01-26T13:52:44.586Z,6.00
2019-01-26T13:55:25.151Z,20.80
2019-01-26T13:58:05.821Z,6.87
2019-01-26T14:00:46.798Z,6.87
2019-01-26T14:03:27.658Z,7.57
2019-01-26T14:05:56.081Z,7.63
2019-01-26T14:08:43.882Z,7.13
2019-01-26T14:14:25.224Z,7.30
2019-01-26T14:17:13.009Z,7.57
2019-01-26T14:20:00.752Z,7.07
2019-01-26T14:22:41.256Z,7.07
2019-01-26T14:25:22.087Z,7.07
2019-01-26T14:31:01.387Z,7.37
2019-01-26T14:33:42.097Z,7.80
2019-01-26T14:36:22.993Z,8.10
2019-01-26T14:39:04.519Z,8.00
2019-01-26T14:41:45.908Z,8.73
2019-01-26T14:44:26.498Z,8.83
2019-01-26T14:47:09.134Z,10.53
2019-01-26T14:49:50.009Z,13.17
2019-01-26T14:52:31.551Z,14.23
2019-01-26T14:55:11.845Z,12.27
2019-01-26T14:57:52.308Z,11.53
2019-01-26T15:00:33.281Z,10.13
2019-01-26T15:03:14.323Z,10.07
2019-01-26T15:05:55.074Z,9.03
2019-01-26T15:08:35.897Z,8.67
2019-01-26T15:11:16.727Z,8.70
2019-01-26T15:13:57.873Z,8.33
2019-01-26T15:16:38.574Z,8.30
2019-01-26T15:19:19.160Z,8.43
2019-01-26T15:21:59.875Z,8.70
2019-01-26T15:24:40.573Z,7.70
2019-01-26T15:27:21.608Z,8.40
2019-01-26T15:30:02.398Z,8.57
2019-01-26T15:32:43.382Z,8.30
2019-01-26T15:35:24.361Z,8.43
2019-01-26T15:38:05.176Z,8.10
2019-01-26T15:40:45.678Z,8.43
2019-01-26T15:43:26.538Z,7.67
2019-01-26T15:46:07.200Z,7.53
2019-01-26T15:48:47.735Z,8.00
2019-01-26T15:51:28.329Z,7.57
2019-01-26T15:54:09.165Z,8.10
2019-01-26T15:56:49.633Z,7.90
2019-01-26T15:59:30.409Z,7.83
2019-01-26T16:02:10.996Z,7.60
2019-01-26T16:04:51.806Z,7.87
2019-01-26T16:07:32.565Z,8.47
2019-01-26T16:10:13.200Z,8.60
2019-01-26T16:12:53.888Z,8.97
2019-01-26T16:15:34.557Z,9.00
2019-01-26T16:18:15.549Z,8.47
2019-01-26T16:20:56.172Z,8.87
2019-01-26T16:23:37.257Z,9.67
2019-01-26T16:26:18.017Z,9.17
2019-01-26T16:28:58.680Z,9.60
2019-01-26T16:31:39.313Z,8.80
2019-01-26T16:34:19.969Z,9.70
2019-01-26T16:37:01.102Z,8.53
2019-01-26T16:39:41.818Z,8.80
2019-01-26T16:42:22.445Z,9.03
2019-01-26T16:45:03.444Z,9.23
2019-01-26T16:47:44.168Z,9.83
2019-01-26T16:50:27.690Z,10.40
2019-01-26T16:53:07.900Z,10.47
2019-01-26T16:55:50.282Z,9.70
2019-01-26T16:58:31.626Z,9.47
2019-01-26T17:01:12.369Z,10.10
2019-01-26T17:03:52.816Z,9.90
2019-01-26T17:06:33.689Z,10.47
2019-01-26T17:09:14.810Z,9.63
2019-01-26T17:11:55.392Z,9.37
2019-01-26T17:14:36.062Z,9.80
2019-01-26T17:17:16.582Z,8.30
2019-01-26T17:19:57.300Z,8.83
2019-01-26T17:22:38.121Z,8.30
2019-01-26T17:25:07.130Z,9.53
2019-01-26T17:27:55.114Z,9.63
2019-01-26T17:30:43.205Z,11.17
2019-01-26T17:33:31.139Z,9.70
2019-01-26T17:36:19.003Z,8.80
2019-01-26T17:39:27.626Z,8.70
2019-01-26T17:42:15.507Z,7.90
2019-01-26T17:45:24.080Z,8.93
2019-01-26T17:48:11.936Z,8.97
2019-01-26T17:50:59.818Z,7.97
2019-01-26T17:53:47.570Z,8.40
2019-01-26T17:56:54.890Z,8.13
2019-01-26T17:59:42.646Z,7.83
2019-01-26T18:02:30.463Z,8.20
2019-01-26T18:04:59.060Z,7.83
2019-01-26T18:08:06.269Z,8.57
2019-01-26T18:10:54.272Z,8.70
2019-01-26T18:13:42.133Z,8.77
2019-01-26T18:16:30.047Z,10.00
2019-01-26T18:19:17.948Z,9.97
2019-01-26T18:21:58.922Z,11.67
2019-01-26T18:24:39.583Z,11.40
2019-01-26T18:27:19.972Z,12.63
2019-01-26T18:30:00.843Z,12.63
2019-01-26T18:32:45.334Z,13.00
2019-01-26T18:35:25.016Z,13.43
2019-01-26T18:38:05.837Z,12.50
2019-01-26T18:40:46.920Z,16.37
2019-01-26T18:43:27.772Z,16.17
2019-01-26T18:46:08.750Z,16.57
2019-01-26T18:48:49.492Z,20.13
2019-01-26T18:51:30.170Z,19.27
2019-01-26T18:54:11.289Z,18.20
2019-01-26T18:56:51.983Z,19.60
2019-01-26T18:59:32.645Z,18.23
2019-01-26T19:02:13.396Z,18.93
2019-01-26T19:04:54.664Z,19.47
2019-01-26T19:07:35.697Z,19.47
2019-01-26T19:10:16.792Z,18.83
2019-01-26T19:12:57.264Z,19.10
2019-01-26T19:15:39.507Z,17.83
2019-01-26T19:18:19.905Z,17.37
2019-01-26T19:21:03.325Z,17.40
2019-01-26T19:23:43.619Z,16.90
2019-01-26T19:26:24.691Z,16.10
2019-01-26T19:29:05.454Z,14.77
2019-01-26T19:31:46.715Z,15.63
2019-01-26T19:34:27.664Z,15.90
2019-01-26T19:37:09.358Z,15.33
2019-01-26T19:39:50.286Z,13.47
2019-01-26T19:42:31.500Z,13.87
2019-01-26T19:45:12.160Z,11.60
2019-01-26T19:47:52.683Z,11.93
2019-01-26T19:50:33.651Z,12.30
2019-01-26T19:53:14.869Z,14.50
2019-01-26T19:55:55.899Z,13.00
2019-01-26T19:58:36.697Z,15.63
2019-01-26T20:01:17.389Z,17.33
2019-01-26T20:03:58.222Z,16.40
2019-01-26T20:06:38.834Z,16.73
2019-01-26T20:09:19.477Z,15.60
2019-01-26T20:12:00.012Z,16.43
2019-01-26T20:14:40.776Z,17.43
2019-01-26T20:17:21.242Z,17.47
2019-01-26T20:19:49.719Z,17.93
2019-01-26T20:22:37.497Z,17.63
2019-01-26T20:25:25.713Z,17.23
2019-01-26T20:28:13.567Z,16.47
2019-01-26T20:31:01.353Z,16.83
2019-01-26T20:33:49.412Z,16.83
2019-01-26T20:36:37.191Z,16.67
2019-01-26T20:39:25.010Z,16.60
2019-01-26T20:42:05.907Z,15.80
2019-01-26T20:44:46.619Z,16.77
2019-01-26T20:47:27.285Z,16.03
2019-01-26T20:50:07.777Z,15.57
2019-01-26T20:52:48.940Z,16.80
2019-01-26T20:55:29.607Z,15.60
2019-01-26T20:58:10.257Z,14.80
2019-01-26T21:00:51.356Z,17.67
2019-01-26T21:03:31.996Z,17.70
2019-01-26T21:06:12.521Z,18.30
2019-01-26T21:08:53.413Z,19.67
2019-01-26T21:11:34.258Z,18.87
2019-01-26T21:14:14.705Z,19.70
2019-01-26T21:16:55.689Z,19.40
2019-01-26T21:19:36.547Z,21.27
2019-01-26T21:22:17.409Z,21.63
2019-01-26T21:24:58.167Z,21.83
2019-01-26T21:27:39.152Z,21.53
2019-01-26T21:30:20.018Z,22.60
2019-01-26T21:33:00.634Z,22.80
2019-01-26T21:35:41.468Z,22.47
2019-01-26T21:38:22.411Z,22.80
2019-01-26T21:41:02.962Z,24.73
2019-01-26T21:43:43.681Z,24.03
2019-01-26T21:46:12.120Z,23.27
2019-01-26T21:48:59.956Z,24.73
2019-01-26T21:51:47.714Z,24.20
2019-01-26T21:54:35.490Z,24.07
2019-01-26T21:57:23.562Z,24.93
2019-01-26T22:00:32.151Z,24.87
2019-01-26T22:03:20.035Z,23.87
2019-01-26T22:06:07.773Z,26.30
2019-01-26T22:08:56.420Z,26.63
2019-01-26T22:14:51.125Z,25.83
2019-01-26T22:17:39.131Z,26.10
2019-01-26T22:20:27.761Z,24.57
2019-01-26T22:23:08.889Z,24.93
2019-01-26T22:25:49.750Z,24.03
2019-01-26T22:28:29.958Z,23.93
2019-01-26T22:31:10.917Z,26.00
2019-01-26T22:33:51.363Z,24.50
2019-01-26T22:36:32.780Z,25.53
2019-01-26T22:39:13.648Z,26.73
2019-01-26T22:41:54.329Z,26.27
2019-01-26T22:44:35.169Z,25.90
2019-01-26T22:47:16.062Z,27.23
2019-01-26T22:49:57.021Z,27.37
2019-01-26T22:52:37.886Z,26.33
2019-01-26T22:55:18.472Z,28.10
2019-01-26T22:57:59.377Z,26.83
2019-01-26T23:03:47.362Z,26.40
2019-01-26T23:06:28.098Z,26.37
2019-01-26T23:09:09.074Z,27.03
2019-01-26T23:11:49.376Z,28.43
2019-01-26T23:14:30.950Z,28.63
2019-01-26T23:17:12.199Z,28.97
2019-01-26T23:19:52.888Z,28.67
2019-01-26T23:22:33.614Z,27.80
2019-01-26T23:25:14.757Z,27.07
2019-01-26T23:27:55.757Z,29.17
2019-01-26T23:33:18.691Z,28.13
2019-01-26T23:35:59.483Z,28.57
2019-01-26T23:38:40.612Z,27.83
2019-01-26T23:41:21.268Z,29.27
2019-01-26T23:44:02.237Z,28.63
2019-01-26T23:46:43.140Z,29.23
2019-01-26T23:49:23.895Z,29.53
2019-01-26T23:52:04.442Z,30.73
2019-01-26T23:54:45.216Z,29.70
2019-01-26T23:57:26.064Z,30.23
